createdAt,value
2018-08-03T00:01:24.570Z,71.55
2018-08-03T00:03:54.402Z,71.27
2018-08-03T00:06:23.913Z,71.41
2018-08-03T00:08:54.128Z,71.32
2018-08-03T00:11:27.159Z,71.11
2018-08-03T00:13:56.883Z,69.75
2018-08-03T00:16:26.356Z,69.59
2018-08-03T00:19:05.127Z,69.16
2018-08-03T00:21:34.671Z,69.40
2018-08-03T00:24:04.458Z,71.00
2018-08-03T00:26:34.051Z,71.74
2018-08-03T00:31:58.174Z,70.68
2018-08-03T00:34:33.477Z,70.68
2018-08-03T00:37:11.455Z,70.51
2018-08-03T00:39:41.019Z,70.35
2018-08-03T00:42:10.842Z,70.74
2018-08-03T00:44:40.433Z,70.81
2018-08-03T00:47:10.616Z,71.11
2018-08-03T00:49:44.505Z,71.03
2018-08-03T00:52:25.190Z,70.96
2018-08-03T00:54:58.079Z,71.45
2018-08-03T00:57:36.483Z,71.30
2018-08-03T01:00:21.868Z,71.23
2018-08-03T01:02:57.445Z,71.11
2018-08-03T01:05:51.708Z,71.48
2018-08-03T01:08:21.782Z,71.24
2018-08-03T01:10:53.864Z,71.14
2018-08-03T01:13:27.666Z,71.11
2018-08-03T01:15:57.544Z,70.97
2018-08-03T01:18:28.330Z,71.16
2018-08-03T01:20:58.840Z,71.03
2018-08-03T01:23:28.940Z,71.04
2018-08-03T01:26:03.114Z,70.95
2018-08-03T01:28:32.879Z,70.96
2018-08-03T01:31:04.571Z,70.88
2018-08-03T01:33:39.995Z,70.77
2018-08-03T01:36:14.664Z,70.75
2018-08-03T01:38:49.110Z,70.87
2018-08-03T01:44:02.717Z,70.83
2018-08-03T01:46:39.111Z,71.17
2018-08-03T01:49:12.553Z,70.93
2018-08-03T01:51:51.951Z,70.01
2018-08-03T01:54:28.835Z,70.22
2018-08-03T01:57:06.244Z,70.27
2018-08-03T01:59:37.975Z,70.94
2018-08-03T02:02:18.464Z,70.93
2018-08-03T02:04:48.504Z,70.63
2018-08-03T02:07:19.119Z,70.74
2018-08-03T02:09:57.858Z,70.85
2018-08-03T02:12:27.575Z,70.99
2018-08-03T02:14:59.993Z,71.45
2018-08-03T02:17:33.369Z,71.74
2018-08-03T02:20:03.027Z,72.35
2018-08-03T02:22:37.107Z,72.08
2018-08-03T02:25:10.112Z,72.54
2018-08-03T02:27:43.058Z,72.57
2018-08-03T02:30:16.950Z,72.92
2018-08-03T02:32:50.751Z,72.66
2018-08-03T02:35:21.674Z,72.80
2018-08-03T02:37:53.200Z,72.83
2018-08-03T02:40:26.024Z,72.88
2018-08-03T02:42:56.022Z,73.20
2018-08-03T02:45:27.016Z,73.35
2018-08-03T02:48:13.429Z,73.79
2018-08-03T02:50:44.038Z,73.72
2018-08-03T02:53:14.104Z,73.57
2018-08-03T02:55:44.477Z,73.18
2018-08-03T02:58:15.124Z,73.14
2018-08-03T03:00:44.905Z,73.48
2018-08-03T03:03:18.985Z,73.07
2018-08-03T03:08:30.298Z,73.50
2018-08-03T03:11:02.780Z,74.05
2018-08-03T03:13:32.879Z,74.04
2018-08-03T03:16:04.641Z,74.50
2018-08-03T03:18:42.001Z,75.80
2018-08-03T03:21:13.245Z,75.62
2018-08-03T03:23:48.665Z,75.11
2018-08-03T03:26:25.703Z,75.13
2018-08-03T03:28:58.886Z,75.28
2018-08-03T03:31:37.319Z,75.07
2018-08-03T03:34:16.339Z,74.64
2018-08-03T03:36:48.893Z,74.86
2018-08-03T03:42:07.778Z,74.69
2018-08-03T03:44:41.538Z,74.52
2018-08-03T03:47:27.962Z,74.56
2018-08-03T03:50:02.524Z,74.52
2018-08-03T03:52:39.192Z,74.32
2018-08-03T03:55:15.318Z,74.38
2018-08-03T03:57:51.550Z,74.38
2018-08-03T04:00:24.125Z,74.66
2018-08-03T04:03:06.943Z,74.41
2018-08-03T04:05:37.247Z,74.29
2018-08-03T04:08:07.732Z,74.37
2018-08-03T04:10:50.111Z,74.29
2018-08-03T04:13:25.899Z,74.97
2018-08-03T04:15:56.491Z,74.60
2018-08-03T04:18:28.477Z,74.83
2018-08-03T04:20:58.183Z,74.65
2018-08-03T04:23:30.256Z,74.30
2018-08-03T04:26:00.210Z,73.36
2018-08-03T04:28:31.477Z,73.06
2018-08-03T04:31:02.094Z,73.18
2018-08-03T04:33:31.629Z,73.19
2018-08-03T04:36:02.562Z,73.01
2018-08-03T04:38:32.176Z,72.92
2018-08-03T04:41:01.842Z,72.74
2018-08-03T04:43:32.715Z,72.29
2018-08-03T04:46:02.791Z,71.65
2018-08-03T04:48:32.766Z,71.77
2018-08-03T04:51:02.552Z,71.46
2018-08-03T04:53:32.135Z,71.51
2018-08-03T04:56:01.794Z,71.57
2018-08-03T04:58:31.317Z,71.78
2018-08-03T05:01:00.961Z,71.83
2018-08-03T05:03:34.739Z,72.46
2018-08-03T05:06:06.893Z,72.22
2018-08-03T05:08:36.824Z,71.83
2018-08-03T05:11:06.499Z,71.99
2018-08-03T05:13:40.607Z,71.86
2018-08-03T05:16:10.153Z,71.57
2018-08-03T05:18:40.482Z,71.61
2018-08-03T05:21:10.786Z,71.12
2018-08-03T05:23:40.426Z,71.61
2018-08-03T05:26:09.825Z,71.15
2018-08-03T05:28:39.677Z,69.82
2018-08-03T05:31:09.621Z,69.09
2018-08-03T05:33:42.406Z,68.76
2018-08-03T05:36:12.120Z,67.89
2018-08-03T05:38:41.709Z,68.89
2018-08-03T05:41:13.902Z,69.27
2018-08-03T05:43:45.166Z,70.10
2018-08-03T05:46:16.561Z,69.74
2018-08-03T05:48:46.037Z,69.06
2018-08-03T05:51:17.190Z,66.60
2018-08-03T05:53:46.661Z,67.60
2018-08-03T05:56:16.325Z,67.72
2018-08-03T05:58:49.783Z,67.60
2018-08-03T06:01:24.290Z,66.84
2018-08-03T06:03:53.941Z,66.35
2018-08-03T06:06:29.204Z,66.53
2018-08-03T06:09:02.064Z,66.44
2018-08-03T06:11:33.339Z,65.05
2018-08-03T06:14:07.145Z,64.47
2018-08-03T06:16:38.649Z,64.08
2018-08-03T06:19:10.997Z,64.35
2018-08-03T06:21:43.035Z,64.52
2018-08-03T06:24:17.155Z,64.43
2018-08-03T06:26:47.395Z,65.01
2018-08-03T06:29:18.643Z,65.67
2018-08-03T06:31:52.510Z,64.94
2018-08-03T06:34:25.866Z,62.74
2018-08-03T06:36:57.575Z,62.08
2018-08-03T06:39:29.044Z,63.56
2018-08-03T06:42:04.110Z,63.36
2018-08-03T06:44:38.078Z,63.02
2018-08-03T06:47:11.283Z,63.34
2018-08-03T06:49:49.876Z,62.13
2018-08-03T06:52:20.935Z,61.64
2018-08-03T06:54:58.269Z,61.60
2018-08-03T06:57:38.621Z,61.47
2018-08-03T07:00:15.073Z,61.48
2018-08-03T07:02:47.937Z,60.36
2018-08-03T07:05:18.682Z,61.64
2018-08-03T07:07:49.016Z,61.05
2018-08-03T07:10:19.428Z,59.67
2018-08-03T07:12:50.512Z,59.31
2018-08-03T07:15:23.282Z,60.24
2018-08-03T07:17:53.149Z,59.50
2018-08-03T07:20:23.632Z,58.83
2018-08-03T07:25:29.381Z,60.61
2018-08-03T07:27:59.233Z,60.57
2018-08-03T07:30:33.216Z,61.04
2018-08-03T07:33:11.896Z,60.32
2018-08-03T07:35:43.038Z,60.16
2018-08-03T07:38:13.954Z,59.34
2018-08-03T07:40:43.657Z,58.47
2018-08-03T07:43:14.444Z,58.21
2018-08-03T07:45:44.717Z,56.98
2018-08-03T07:48:14.870Z,57.90
2018-08-03T07:50:44.346Z,59.27
2018-08-03T07:53:14.530Z,59.74
2018-08-03T07:55:44.650Z,58.75
2018-08-03T07:58:17.751Z,58.03
2018-08-03T08:00:49.225Z,58.67
2018-08-03T08:03:19.974Z,57.40
2018-08-03T08:05:50.109Z,58.14
2018-08-03T08:08:21.124Z,58.59
2018-08-03T08:10:51.648Z,58.49
2018-08-03T08:13:21.787Z,59.29
2018-08-03T08:15:51.608Z,59.07
2018-08-03T08:18:24.180Z,58.47
2018-08-03T08:20:57.943Z,58.54
2018-08-03T08:23:27.859Z,57.98
2018-08-03T08:25:58.473Z,58.03
2018-08-03T08:28:28.289Z,58.22
2018-08-03T08:31:03.521Z,57.05
2018-08-03T08:33:34.836Z,55.50
2018-08-03T08:36:06.959Z,55.87
2018-08-03T08:38:40.702Z,55.88
2018-08-03T08:41:10.689Z,55.46
2018-08-03T08:43:40.293Z,56.03
2018-08-03T08:46:10.940Z,55.31
2018-08-03T08:48:40.642Z,53.67
2018-08-03T08:51:10.322Z,53.41
2018-08-03T08:53:40.435Z,52.81
2018-08-03T08:56:09.972Z,52.82
2018-08-03T08:58:44.507Z,50.00
2018-08-03T09:01:14.224Z,50.21
2018-08-03T09:03:43.750Z,50.64
2018-08-03T09:06:13.256Z,50.67
2018-08-03T09:08:43.254Z,50.21
2018-08-03T09:11:14.863Z,49.02
2018-08-03T09:13:44.524Z,48.83
2018-08-03T09:16:14.250Z,49.04
2018-08-03T09:18:44.060Z,48.68
2018-08-03T09:21:14.463Z,49.49
2018-08-03T09:23:44.053Z,48.37
2018-08-03T09:26:13.653Z,48.91
2018-08-03T09:28:43.021Z,49.20
2018-08-03T09:31:12.861Z,50.23
2018-08-03T09:33:42.273Z,49.37
2018-08-03T09:36:11.881Z,48.56
2018-08-03T09:38:41.797Z,49.55
2018-08-03T09:41:11.205Z,49.02
2018-08-03T09:43:40.548Z,48.02
2018-08-03T09:46:09.847Z,48.00
2018-08-03T09:48:39.906Z,47.00
2018-08-03T09:51:09.677Z,47.15
2018-08-03T09:53:39.418Z,47.12
2018-08-03T09:56:09.392Z,45.37
2018-08-03T09:58:38.919Z,44.83
2018-08-03T10:01:10.863Z,43.64
2018-08-03T10:03:42.291Z,44.60
2018-08-03T10:06:12.550Z,44.71
2018-08-03T10:08:42.177Z,41.98
2018-08-03T10:11:11.708Z,42.03
2018-08-03T10:13:41.431Z,42.42
2018-08-03T10:16:10.930Z,43.03
2018-08-03T10:18:40.575Z,41.75
2018-08-03T10:21:10.253Z,41.06
2018-08-03T10:23:40.381Z,40.38
2018-08-03T10:26:10.084Z,40.44
2018-08-03T10:28:39.956Z,40.19
2018-08-03T10:31:10.959Z,39.89
2018-08-03T10:33:46.220Z,39.16
2018-08-03T10:36:16.460Z,39.63
2018-08-03T10:38:46.939Z,40.49
2018-08-03T10:41:18.459Z,38.83
2018-08-03T10:43:48.022Z,39.44
2018-08-03T10:46:17.833Z,38.79
2018-08-03T10:48:50.105Z,36.46
2018-08-03T10:51:22.001Z,38.57
2018-08-03T10:53:54.879Z,37.00
2018-08-03T10:56:26.071Z,36.85
2018-08-03T10:58:56.310Z,37.82
2018-08-03T11:01:25.853Z,37.16
2018-08-03T11:03:59.125Z,37.63
2018-08-03T11:06:28.638Z,38.06
2018-08-03T11:08:58.968Z,35.21
2018-08-03T11:11:28.463Z,36.71
2018-08-03T11:13:59.258Z,36.29
2018-08-03T11:16:29.443Z,34.64
2018-08-03T11:19:00.134Z,35.63
2018-08-03T11:21:31.622Z,36.62
2018-08-03T11:24:01.237Z,35.40
2018-08-03T11:26:30.544Z,36.08
2018-08-03T11:29:00.449Z,35.83
2018-08-03T11:31:30.274Z,36.08
2018-08-03T11:33:59.929Z,35.82
2018-08-03T11:36:29.430Z,33.04
2018-08-03T11:38:59.021Z,34.87
2018-08-03T11:41:28.623Z,36.47
2018-08-03T11:44:01.234Z,37.44
2018-08-03T11:46:32.214Z,36.78
2018-08-03T11:49:02.672Z,36.49
2018-08-03T11:51:33.217Z,37.17
2018-08-03T11:54:03.198Z,37.45
2018-08-03T11:56:32.763Z,38.57
2018-08-03T11:59:02.795Z,38.39
2018-08-03T12:01:32.696Z,37.30
2018-08-03T12:04:02.502Z,37.76
2018-08-03T12:06:32.434Z,36.37
2018-08-03T12:09:02.057Z,36.53
2018-08-03T12:11:31.591Z,36.40
2018-08-03T12:14:01.345Z,35.66
2018-08-03T12:16:30.985Z,36.67
2018-08-03T12:19:00.473Z,35.63
2018-08-03T12:21:29.993Z,36.19
2018-08-03T12:23:59.427Z,35.51
2018-08-03T12:26:29.149Z,37.29
2018-08-03T12:29:02.503Z,36.67
2018-08-03T12:31:32.201Z,36.39
2018-08-03T12:34:03.746Z,37.40
2018-08-03T12:36:33.459Z,37.06
2018-08-03T12:39:03.292Z,35.43
2018-08-03T12:41:33.045Z,36.82
2018-08-03T12:44:02.602Z,37.60
2018-08-03T12:46:32.025Z,36.69
2018-08-03T12:49:01.353Z,37.21
2018-08-03T12:51:31.008Z,36.71
2018-08-03T12:54:00.413Z,35.86
2018-08-03T12:56:29.846Z,36.44
2018-08-03T12:58:59.379Z,35.81
2018-08-03T13:01:30.310Z,35.78
2018-08-03T13:03:59.593Z,36.61
2018-08-03T13:06:28.965Z,36.39
2018-08-03T13:08:58.629Z,36.65
2018-08-03T13:11:28.308Z,35.93
2018-08-03T13:13:58.365Z,36.14
2018-08-03T13:16:28.174Z,36.19
2018-08-03T13:18:57.879Z,36.01
2018-08-03T13:21:34.094Z,35.70
2018-08-03T13:24:04.123Z,34.69
2018-08-03T13:26:33.728Z,34.20
2018-08-03T13:29:03.495Z,34.92
2018-08-03T13:31:33.494Z,35.54
2018-08-03T13:34:03.050Z,34.97
2018-08-03T13:36:33.017Z,35.09
2018-08-03T13:39:02.593Z,35.69
2018-08-03T13:41:32.155Z,35.63
2018-08-03T13:44:01.526Z,35.02
2018-08-03T13:46:31.103Z,35.36
2018-08-03T13:49:00.640Z,34.50
2018-08-03T13:51:30.399Z,34.68
2018-08-03T13:53:59.919Z,34.88
2018-08-03T13:56:29.837Z,34.29
2018-08-03T13:58:59.290Z,34.66
2018-08-03T14:01:38.075Z,33.93
2018-08-03T14:04:07.878Z,35.06
2018-08-03T14:06:37.501Z,35.57
2018-08-03T14:09:07.966Z,36.52
2018-08-03T14:11:37.977Z,36.00
2018-08-03T14:14:07.534Z,36.20
2018-08-03T14:16:37.402Z,37.35
2018-08-03T14:19:06.871Z,36.48
2018-08-03T14:21:36.590Z,36.51
2018-08-03T14:24:06.278Z,36.32
2018-08-03T14:26:36.020Z,36.07
2018-08-03T14:29:05.838Z,36.21
2018-08-03T14:31:35.924Z,36.42
2018-08-03T14:34:05.377Z,35.23
2018-08-03T14:36:35.149Z,35.74
2018-08-03T14:39:06.415Z,34.90
2018-08-03T14:41:36.432Z,36.42
2018-08-03T14:44:06.642Z,36.97
2018-08-03T14:46:36.427Z,36.42
2018-08-03T14:49:06.156Z,37.30
2018-08-03T14:51:35.766Z,37.05
2018-08-03T14:54:05.477Z,36.97
2018-08-03T14:56:36.293Z,36.85
2018-08-03T14:59:08.372Z,36.50
2018-08-03T15:01:37.779Z,37.26
2018-08-03T15:04:07.507Z,36.68
2018-08-03T15:06:37.231Z,36.53
2018-08-03T15:09:09.421Z,37.70
2018-08-03T15:11:39.136Z,37.34
2018-08-03T15:14:08.826Z,37.06
2018-08-03T15:16:38.513Z,37.29
2018-08-03T15:19:08.218Z,37.29
2018-08-03T15:21:38.130Z,37.74
2018-08-03T15:24:07.646Z,38.03
2018-08-03T15:26:37.510Z,38.33
2018-08-03T15:29:06.957Z,37.95
2018-08-03T15:31:36.382Z,37.88
2018-08-03T15:34:07.249Z,37.19
2018-08-03T15:36:36.969Z,37.28
2018-08-03T15:39:09.285Z,37.95
2018-08-03T15:41:38.959Z,38.12
2018-08-03T15:44:08.693Z,37.79
2018-08-03T15:46:38.661Z,37.75
2018-08-03T15:49:07.971Z,38.24
2018-08-03T15:51:37.569Z,38.46
2018-08-03T15:54:07.284Z,38.36
2018-08-03T15:56:36.927Z,38.92
2018-08-03T15:59:06.437Z,39.45
2018-08-03T16:01:35.914Z,39.11
2018-08-03T16:04:05.354Z,39.36
2018-08-03T16:06:34.911Z,38.91
2018-08-03T16:09:06.422Z,38.78
2018-08-03T16:11:35.975Z,39.75
2018-08-03T16:14:05.472Z,38.80
2018-08-03T16:16:35.149Z,40.10
2018-08-03T16:19:04.660Z,39.10
2018-08-03T16:21:34.603Z,39.12
2018-08-03T16:24:04.659Z,39.10
2018-08-03T16:26:34.286Z,39.91
2018-08-03T16:29:03.601Z,40.29
2018-08-03T16:31:32.950Z,40.48
2018-08-03T16:34:02.634Z,40.59
2018-08-03T16:36:32.447Z,40.76
2018-08-03T16:39:02.102Z,41.02
2018-08-03T16:41:31.870Z,41.54
2018-08-03T16:44:01.355Z,41.81
2018-08-03T16:46:31.030Z,42.21
2018-08-03T16:49:00.430Z,42.46
2018-08-03T16:51:30.011Z,42.55
2018-08-03T16:53:59.493Z,42.44
2018-08-03T16:56:28.997Z,42.69
2018-08-03T16:58:58.744Z,43.36
2018-08-03T17:01:28.470Z,43.69
2018-08-03T17:03:58.039Z,43.53
2018-08-03T17:06:27.637Z,42.86
2018-08-03T17:08:57.201Z,43.94
2018-08-03T17:11:26.662Z,44.12
2018-08-03T17:13:56.232Z,44.45
2018-08-03T17:16:25.752Z,44.15
2018-08-03T17:18:55.180Z,44.75
2018-08-03T17:21:24.897Z,45.24
2018-08-03T17:23:54.513Z,45.24
2018-08-03T17:26:23.998Z,46.02
2018-08-03T17:28:53.608Z,46.09
2018-08-03T17:31:22.993Z,46.17
2018-08-03T17:33:52.524Z,45.87
2018-08-03T17:36:22.184Z,45.71
2018-08-03T17:38:52.437Z,46.34
2018-08-03T17:41:22.170Z,46.43
2018-08-03T17:43:51.834Z,46.19
2018-08-03T17:46:21.744Z,47.08
2018-08-03T17:48:51.299Z,46.29
2018-08-03T17:51:20.975Z,46.78
2018-08-03T17:53:50.661Z,46.11
2018-08-03T17:56:20.231Z,46.07
2018-08-03T17:58:50.169Z,46.25
2018-08-03T18:01:19.937Z,46.31
2018-08-03T18:03:49.744Z,46.37
2018-08-03T18:06:19.358Z,48.51
2018-08-03T18:08:49.199Z,48.11
2018-08-03T18:11:18.702Z,48.44
2018-08-03T18:13:48.134Z,47.58
2018-08-03T18:16:17.829Z,47.39
2018-08-03T18:18:47.559Z,47.90
2018-08-03T18:21:17.311Z,47.49
2018-08-03T18:23:46.823Z,47.93
2018-08-03T18:26:16.556Z,48.79
2018-08-03T18:28:46.188Z,48.62
2018-08-03T18:31:16.011Z,49.04
2018-08-03T18:33:45.594Z,49.46
2018-08-03T18:36:15.330Z,49.61
2018-08-03T18:38:45.233Z,49.28
2018-08-03T18:41:14.715Z,49.13
2018-08-03T18:43:44.521Z,49.64
2018-08-03T18:46:14.768Z,50.43
2018-08-03T18:48:44.481Z,50.58
2018-08-03T18:51:14.034Z,49.86
2018-08-03T18:53:43.654Z,50.32
2018-08-03T18:56:13.393Z,51.08
2018-08-03T18:58:42.989Z,51.20
2018-08-03T19:01:12.382Z,50.73
2018-08-03T19:03:42.032Z,50.69
2018-08-03T19:06:11.890Z,50.57
2018-08-03T19:08:41.976Z,51.34
2018-08-03T19:11:11.642Z,50.51
2018-08-03T19:13:41.265Z,51.64
2018-08-03T19:16:11.055Z,51.42
2018-08-03T19:18:40.871Z,51.84
2018-08-03T19:21:10.385Z,51.53
2018-08-03T19:23:40.064Z,51.84
2018-08-03T19:26:09.374Z,52.05
2018-08-03T19:28:39.324Z,52.67
2018-08-03T19:31:09.057Z,53.03
2018-08-03T19:33:38.869Z,53.22
2018-08-03T19:36:08.447Z,52.89
2018-08-03T19:38:38.359Z,52.89
2018-08-03T19:41:08.224Z,53.26
2018-08-03T19:43:38.161Z,53.33
2018-08-03T19:46:08.179Z,54.37
2018-08-03T19:48:38.058Z,53.99
2018-08-03T19:51:08.146Z,53.70
2018-08-03T19:53:38.391Z,54.10
2018-08-03T19:56:07.796Z,54.00
2018-08-03T19:58:37.389Z,53.83
2018-08-03T20:01:07.021Z,53.64
2018-08-03T20:03:36.689Z,54.82
2018-08-03T20:06:06.396Z,55.43
2018-08-03T20:08:36.059Z,55.54
2018-08-03T20:11:06.058Z,56.24
2018-08-03T20:13:35.912Z,55.60
2018-08-03T20:16:05.672Z,55.76
2018-08-03T20:18:35.853Z,55.89
2018-08-03T20:21:05.608Z,56.40
2018-08-03T20:23:35.411Z,57.01
2018-08-03T20:26:05.212Z,57.46
2018-08-03T20:28:35.064Z,56.94
2018-08-03T20:31:05.260Z,56.30
2018-08-03T20:33:35.237Z,56.14
2018-08-03T20:36:05.414Z,56.84
2018-08-03T20:38:35.397Z,57.04
2018-08-03T20:41:05.015Z,57.00
2018-08-03T20:43:34.765Z,57.16
2018-08-03T20:46:04.408Z,57.43
2018-08-03T20:48:33.974Z,58.55
2018-08-03T20:51:03.523Z,58.01
2018-08-03T20:53:33.318Z,58.03
2018-08-03T20:56:02.789Z,56.31
2018-08-03T20:58:32.133Z,55.96
2018-08-03T21:01:01.635Z,56.34
2018-08-03T21:03:31.053Z,56.99
2018-08-03T21:06:00.515Z,56.62
2018-08-03T21:08:30.157Z,56.72
2018-08-03T21:10:59.842Z,56.75
2018-08-03T21:13:29.365Z,56.62
2018-08-03T21:15:59.356Z,56.85
2018-08-03T21:18:29.103Z,56.79
2018-08-03T21:20:58.579Z,56.18
2018-08-03T21:23:28.576Z,56.51
2018-08-03T21:25:57.972Z,56.97
2018-08-03T21:28:27.716Z,57.32
2018-08-03T21:30:57.536Z,57.36
2018-08-03T21:33:27.414Z,57.24
2018-08-03T21:35:57.021Z,56.95
2018-08-03T21:38:26.949Z,57.25
2018-08-03T21:40:56.632Z,57.62
2018-08-03T21:43:26.273Z,58.96
2018-08-03T21:45:56.417Z,58.45
2018-08-03T21:48:25.989Z,58.50
2018-08-03T21:50:55.730Z,58.69
2018-08-03T21:53:25.722Z,59.45
2018-08-03T21:55:55.639Z,59.58
2018-08-03T21:58:25.368Z,59.51
2018-08-03T22:00:55.000Z,59.73
2018-08-03T22:03:24.642Z,60.21
2018-08-03T22:05:54.393Z,60.20
2018-08-03T22:08:24.430Z,60.66
2018-08-03T22:10:53.955Z,60.45
2018-08-03T22:13:23.445Z,61.09
2018-08-03T22:15:53.208Z,61.13
2018-08-03T22:18:23.895Z,61.45
2018-08-03T22:20:53.730Z,61.15
2018-08-03T22:23:24.304Z,61.27
2018-08-03T22:25:54.077Z,61.50
2018-08-03T22:28:23.728Z,61.67
2018-08-03T22:30:53.356Z,61.75
2018-08-03T22:50:45.693Z,63.42
2018-08-03T22:53:15.532Z,63.23
2018-08-03T22:55:47.874Z,63.38
2018-08-03T22:58:18.014Z,63.64
2018-08-03T23:00:48.855Z,63.75
2018-08-03T23:03:18.341Z,63.07
2018-08-03T23:05:48.381Z,63.49
2018-08-03T23:25:40.326Z,64.71
2018-08-03T23:28:11.368Z,64.62
2018-08-03T23:30:40.962Z,64.87
2018-08-03T23:50:33.262Z,64.48
2018-08-03T23:53:02.737Z,64.48
2018-08-03T23:55:32.706Z,64.60
2018-08-03T23:58:03.391Z,64.66
